Kuala Lumpur, Malaysia
Current Conditions -  °F | °C
As of 8:00 PM on Friday 31 Oct 2014 (Local Time) from WMSA Reporting Station
Broken Clouds Broken Clouds  
Wind Chill: 81°   Ceiling: 28000
Heat Index: 87°   Visibility: 4mi
Dew Point: 77°   Wind: 2mph
Humidity: 89%   Direction: 350°N
Pressure: 29.77"   Gusts: NA
Location:  3.16°N, 101.71°E
Report Text: WMSA 311200Z 35002KT 6000 FEW025 SCT140 BKN280 27/25 Q1008
Loading
Personal Weather Stations






























Interactive Weather Map
Tropical Storm Tracking
New forecast layout! Learn more

10-Day Weather Forecast

Advertisements
Track Severe Weather on mobile